sensor_id;sensor_type;location;lat;lon;timestamp;temperature;humidity
23271;DHT22;11804;51.118;17.058;2023-04-01T00:00:01;9.90;99.90
23271;DHT22;11804;51.118;17.058;2023-04-01T00:02:28;10.00;99.90
23271;DHT22;11804;51.118;17.058;2023-04-01T00:04:56;9.90;99.90
23271;DHT22;11804;51.118;17.058;2023-04-01T00:07:23;10.00;99.90
23271;DHT22;11804;51.118;17.058;2023-04-01T00:09:52;10.00;99.90
23271;DHT22;11804;51.118;17.058;2023-04-01T00:12:20;10.00;99.90
23271;DHT22;11804;51.118;17.058;2023-04-01T00:14:47;10.00;99.90
23271;DHT22;11804;51.118;17.058;2023-04-01T00:17:15;10.10;99.90
23271;DHT22;11804;51.118;17.058;2023-04-01T00:19:43;10.10;99.90
23271;DHT22;11804;51.118;17.058;2023-04-01T00:22:10;10.10;99.90
23271;DHT22;11804;51.118;17.058;2023-04-01T00:24:38;10.10;99.90
23271;DHT22;11804;51.118;17.058;2023-04-01T00:27:06;10.20;99.90
23271;DHT22;11804;51.118;17.058;2023-04-01T00:29:34;10.10;99.90
23271;DHT22;11804;51.118;17.058;2023-04-01T00:32:02;10.10;99.90
23271;DHT22;11804;51.118;17.058;2023-04-01T00:34:30;10.10;99.90
23271;DHT22;11804;51.118;17.058;2023-04-01T00:36:57;10.10;99.90
23271;DHT22;11804;51.118;17.058;2023-04-01T00:39:25;10.10;99.90
23271;DHT22;11804;51.118;17.058;2023-04-01T00:41:53;10.10;99.90
23271;DHT22;11804;51.118;17.058;2023-04-01T00:44:26;10.10;99.90
23271;DHT22;11804;51.118;17.058;2023-04-01T00:46:54;10.10;99.90
23271;DHT22;11804;51.118;17.058;2023-04-01T00:49:35;10.10;99.90
23271;DHT22;11804;51.118;17.058;2023-04-01T00:51:55;10.10;99.90
23271;DHT22;11804;51.118;17.058;2023-04-01T00:54:25;10.10;99.90
23271;DHT22;11804;51.118;17.058;2023-04-01T00:59:43;10.10;99.90
23271;DHT22;11804;51.118;17.058;2023-04-01T01:02:13;10.00;99.90
23271;DHT22;11804;51.118;17.058;2023-04-01T01:04:42;10.00;99.90
23271;DHT22;11804;51.118;17.058;2023-04-01T01:10:05;10.00;99.90
23271;DHT22;11804;51.118;17.058;2023-04-01T01:18:27;10.00;99.90
23271;DHT22;11804;51.118;17.058;2023-04-01T01:21:15;10.00;99.90
23271;DHT22;11804;51.118;17.058;2023-04-01T01:26:48;10.00;99.90
23271;DHT22;11804;51.118;17.058;2023-04-01T01:37:46;10.00;99.90
23271;DHT22;11804;51.118;17.058;2023-04-01T01:40:16;10.00;99.90
23271;DHT22;11804;51.118;17.058;2023-04-01T01:42:46;10.00;99.90
23271;DHT22;11804;51.118;17.058;2023-04-01T01:45:18;10.00;99.90
23271;DHT22;11804;51.118;17.058;2023-04-01T01:47:48;9.90;99.90
23271;DHT22;11804;51.118;17.058;2023-04-01T01:50:18;9.90;99.90
23271;DHT22;11804;51.118;17.058;2023-04-01T01:52:46;9.90;99.90
23271;DHT22;11804;51.118;17.058;2023-04-01T01:55:30;9.90;99.90
23271;DHT22;11804;51.118;17.058;2023-04-01T01:57:59;9.90;99.90
23271;DHT22;11804;51.118;17.058;2023-04-01T02:00:28;9.90;99.90
23271;DHT22;11804;51.118;17.058;2023-04-01T02:02:56;9.90;99.90
23271;DHT22;11804;51.118;17.058;2023-04-01T02:05:26;9.90;99.90
23271;DHT22;11804;51.118;17.058;2023-04-01T02:08:02;9.90;99.90
23271;DHT22;11804;51.118;17.058;2023-04-01T02:10:31;9.90;99.90
23271;DHT22;11804;51.118;17.058;2023-04-01T02:13:03;9.90;99.90
23271;DHT22;11804;51.118;17.058;2023-04-01T02:15:32;9.90;99.90
23271;DHT22;11804;51.118;17.058;2023-04-01T02:18:04;9.90;99.90
23271;DHT22;11804;51.118;17.058;2023-04-01T02:20:34;9.90;99.90
23271;DHT22;11804;51.118;17.058;2023-04-01T02:23:02;9.90;99.90
23271;DHT22;11804;51.118;17.058;2023-04-01T02:25:33;9.90;99.90
23271;DHT22;11804;51.118;17.058;2023-04-01T02:28:03;9.90;99.90
23271;DHT22;11804;51.118;17.058;2023-04-01T02:30:35;9.90;99.90
23271;DHT22;11804;51.118;17.058;2023-04-01T02:33:04;9.90;99.90
23271;DHT22;11804;51.118;17.058;2023-04-01T02:35:35;9.90;99.90
23271;DHT22;11804;51.118;17.058;2023-04-01T02:38:05;10.00;99.90
23271;DHT22;11804;51.118;17.058;2023-04-01T02:40:44;10.00;99.90
23271;DHT22;11804;51.118;17.058;2023-04-01T02:43:13;9.90;99.90
23271;DHT22;11804;51.118;17.058;2023-04-01T02:45:40;10.00;99.90
23271;DHT22;11804;51.118;17.058;2023-04-01T02:48:08;9.90;99.90
23271;DHT22;11804;51.118;17.058;2023-04-01T02:50:36;9.90;99.90
23271;DHT22;11804;51.118;17.058;2023-04-01T02:53:03;9.90;99.90
23271;DHT22;11804;51.118;17.058;2023-04-01T02:55:33;9.90;99.90
23271;DHT22;11804;51.118;17.058;2023-04-01T02:58:02;9.90;99.90
23271;DHT22;11804;51.118;17.058;2023-04-01T03:00:30;9.90;99.90
23271;DHT22;11804;51.118;17.058;2023-04-01T03:02:58;9.90;99.90
23271;DHT22;11804;51.118;17.058;2023-04-01T03:05:28;9.90;99.90
23271;DHT22;11804;51.118;17.058;2023-04-01T03:07:55;9.90;99.90
23271;DHT22;11804;51.118;17.058;2023-04-01T03:10:23;9.90;99.90
23271;DHT22;11804;51.118;17.058;2023-04-01T03:12:52;9.90;99.90
23271;DHT22;11804;51.118;17.058;2023-04-01T03:15:19;10.00;99.90
23271;DHT22;11804;51.118;17.058;2023-04-01T03:17:48;9.90;99.90
23271;DHT22;11804;51.118;17.058;2023-04-01T03:20:15;10.00;99.90
23271;DHT22;11804;51.118;17.058;2023-04-01T03:22:43;10.00;99.90
23271;DHT22;11804;51.118;17.058;2023-04-01T03:25:13;10.00;99.90
23271;DHT22;11804;51.118;17.058;2023-04-01T03:27:41;10.00;99.90
23271;DHT22;11804;51.118;17.058;2023-04-01T03:30:09;10.00;99.90
23271;DHT22;11804;51.118;17.058;2023-04-01T03:32:37;9.90;99.90
23271;DHT22;11804;51.118;17.058;2023-04-01T03:35:05;9.90;99.90
23271;DHT22;11804;51.118;17.058;2023-04-01T03:37:33;9.90;99.90
23271;DHT22;11804;51.118;17.058;2023-04-01T03:40:00;9.90;99.90
23271;DHT22;11804;51.118;17.058;2023-04-01T03:42:29;9.90;99.90
23271;DHT22;11804;51.118;17.058;2023-04-01T03:44:57;9.90;99.90
23271;DHT22;11804;51.118;17.058;2023-04-01T03:47:25;9.90;99.90
23271;DHT22;11804;51.118;17.058;2023-04-01T03:49:53;9.90;99.90
23271;DHT22;11804;51.118;17.058;2023-04-01T03:52:21;9.90;99.90
23271;DHT22;11804;51.118;17.058;2023-04-01T03:54:49;9.90;99.90
23271;DHT22;11804;51.118;17.058;2023-04-01T03:57:18;9.80;99.90
23271;DHT22;11804;51.118;17.058;2023-04-01T03:59:45;9.80;99.90
23271;DHT22;11804;51.118;17.058;2023-04-01T04:02:13;9.80;99.90
23271;DHT22;11804;51.118;17.058;2023-04-01T04:04:41;9.80;99.90
23271;DHT22;11804;51.118;17.058;2023-04-01T04:07:09;9.80;99.90
23271;DHT22;11804;51.118;17.058;2023-04-01T04:09:36;9.80;99.90
23271;DHT22;11804;51.118;17.058;2023-04-01T04:12:04;9.70;99.90
23271;DHT22;11804;51.118;17.058;2023-04-01T04:14:34;9.70;99.90
23271;DHT22;11804;51.118;17.058;2023-04-01T04:17:01;9.60;99.90
23271;DHT22;11804;51.118;17.058;2023-04-01T04:19:33;9.60;99.90
23271;DHT22;11804;51.118;17.058;2023-04-01T04:22:00;9.60;99.90
23271;DHT22;11804;51.118;17.058;2023-04-01T04:24:28;9.60;99.90
23271;DHT22;11804;51.118;17.058;2023-04-01T04:26:56;9.60;99.90
23271;DHT22;11804;51.118;17.058;2023-04-01T04:29:25;9.50;99.90
23271;DHT22;11804;51.118;17.058;2023-04-01T04:31:54;9.50;99.90
23271;DHT22;11804;51.118;17.058;2023-04-01T04:34:22;9.50;99.90
23271;DHT22;11804;51.118;17.058;2023-04-01T04:36:49;9.50;99.90
23271;DHT22;11804;51.118;17.058;2023-04-01T04:39:17;9.50;99.90
23271;DHT22;11804;51.118;17.058;2023-04-01T04:41:44;9.40;99.90
23271;DHT22;11804;51.118;17.058;2023-04-01T04:44:12;9.40;99.90
23271;DHT22;11804;51.118;17.058;2023-04-01T04:46:39;9.40;99.90
23271;DHT22;11804;51.118;17.058;2023-04-01T04:49:08;9.40;99.90
23271;DHT22;11804;51.118;17.058;2023-04-01T04:51:35;9.40;99.90
23271;DHT22;11804;51.118;17.058;2023-04-01T04:54:03;9.40;99.90
23271;DHT22;11804;51.118;17.058;2023-04-01T04:56:32;9.40;99.90
23271;DHT22;11804;51.118;17.058;2023-04-01T04:59:00;9.50;99.90
23271;DHT22;11804;51.118;17.058;2023-04-01T05:01:28;9.40;99.90
23271;DHT22;11804;51.118;17.058;2023-04-01T05:03:55;9.40;99.90
23271;DHT22;11804;51.118;17.058;2023-04-01T05:06:23;9.50;99.90
23271;DHT22;11804;51.118;17.058;2023-04-01T05:08:52;9.40;99.90
23271;DHT22;11804;51.118;17.058;2023-04-01T05:11:19;9.40;99.90
23271;DHT22;11804;51.118;17.058;2023-04-01T05:13:47;9.40;99.90
23271;DHT22;11804;51.118;17.058;2023-04-01T05:16:18;9.40;99.90
23271;DHT22;11804;51.118;17.058;2023-04-01T05:18:47;9.40;99.90
23271;DHT22;11804;51.118;17.058;2023-04-01T05:21:15;9.40;99.90
23271;DHT22;11804;51.118;17.058;2023-04-01T05:23:44;9.40;99.90
23271;DHT22;11804;51.118;17.058;2023-04-01T05:26:13;9.50;99.90
23271;DHT22;11804;51.118;17.058;2023-04-01T05:28:42;9.50;99.90
23271;DHT22;11804;51.118;17.058;2023-04-01T05:31:09;9.50;99.90
23271;DHT22;11804;51.118;17.058;2023-04-01T05:33:37;9.50;99.90
23271;DHT22;11804;51.118;17.058;2023-04-01T05:36:13;9.50;99.90
23271;DHT22;11804;51.118;17.058;2023-04-01T05:38:41;9.50;99.90
23271;DHT22;11804;51.118;17.058;2023-04-01T05:41:10;9.50;99.90
23271;DHT22;11804;51.118;17.058;2023-04-01T05:43:38;9.50;99.90
23271;DHT22;11804;51.118;17.058;2023-04-01T05:46:06;9.50;99.90
23271;DHT22;11804;51.118;17.058;2023-04-01T05:48:35;9.60;99.90
23271;DHT22;11804;51.118;17.058;2023-04-01T05:51:03;9.50;99.90
23271;DHT22;11804;51.118;17.058;2023-04-01T05:53:31;9.50;99.90
23271;DHT22;11804;51.118;17.058;2023-04-01T05:56:03;9.50;99.90
23271;DHT22;11804;51.118;17.058;2023-04-01T05:58:31;9.60;99.90
23271;DHT22;11804;51.118;17.058;2023-04-01T06:01:07;9.60;99.90
23271;DHT22;11804;51.118;17.058;2023-04-01T06:03:35;9.60;99.90
23271;DHT22;11804;51.118;17.058;2023-04-01T06:06:03;9.60;99.90
23271;DHT22;11804;51.118;17.058;2023-04-01T06:08:31;9.60;99.90
23271;DHT22;11804;51.118;17.058;2023-04-01T06:11:23;9.60;99.90
23271;DHT22;11804;51.118;17.058;2023-04-01T06:25:28;9.60;99.90
23271;DHT22;11804;51.118;17.058;2023-04-01T06:30:44;9.60;99.90
23271;DHT22;11804;51.118;17.058;2023-04-01T06:36:19;9.70;99.90
23271;DHT22;11804;51.118;17.058;2023-04-01T06:39:01;9.70;99.90
23271;DHT22;11804;51.118;17.058;2023-04-01T06:46:50;9.80;99.90
23271;DHT22;11804;51.118;17.058;2023-04-01T06:52:29;9.80;99.90
23271;DHT22;11804;51.118;17.058;2023-04-01T06:55:14;9.80;99.90
23271;DHT22;11804;51.118;17.058;2023-04-01T06:57:43;9.80;99.90
23271;DHT22;11804;51.118;17.058;2023-04-01T07:00:38;9.80;99.90
23271;DHT22;11804;51.118;17.058;2023-04-01T07:03:16;9.80;99.90
23271;DHT22;11804;51.118;17.058;2023-04-01T07:05:42;9.80;99.90
23271;DHT22;11804;51.118;17.058;2023-04-01T07:08:13;9.90;99.90
23271;DHT22;11804;51.118;17.058;2023-04-01T07:10:47;9.90;99.90
23271;DHT22;11804;51.118;17.058;2023-04-01T07:13:27;9.90;99.90
23271;DHT22;11804;51.118;17.058;2023-04-01T07:15:54;10.00;99.90
23271;DHT22;11804;51.118;17.058;2023-04-01T07:18:21;10.10;99.90
23271;DHT22;11804;51.118;17.058;2023-04-01T07:20:50;10.10;99.90
23271;DHT22;11804;51.118;17.058;2023-04-01T07:23:32;10.10;99.90
23271;DHT22;11804;51.118;17.058;2023-04-01T07:26:00;10.20;99.90
23271;DHT22;11804;51.118;17.058;2023-04-01T07:28:31;10.20;99.90
23271;DHT22;11804;51.118;17.058;2023-04-01T07:34:12;10.30;99.90
23271;DHT22;11804;51.118;17.058;2023-04-01T07:36:48;10.30;99.90
23271;DHT22;11804;51.118;17.058;2023-04-01T07:39:48;10.30;99.90
23271;DHT22;11804;51.118;17.058;2023-04-01T07:50:25;10.20;99.90
23271;DHT22;11804;51.118;17.058;2023-04-01T07:55:53;10.20;99.90
23271;DHT22;11804;51.118;17.058;2023-04-01T07:58:46;10.20;99.90
23271;DHT22;11804;51.118;17.058;2023-04-01T08:01:35;10.30;99.90
23271;DHT22;11804;51.118;17.058;2023-04-01T08:06:59;10.50;99.90
23271;DHT22;11804;51.118;17.058;2023-04-01T08:09:53;10.60;99.90
23271;DHT22;11804;51.118;17.058;2023-04-01T08:12:27;10.80;99.90
23271;DHT22;11804;51.118;17.058;2023-04-01T08:15:21;11.00;99.90
23271;DHT22;11804;51.118;17.058;2023-04-01T08:20:47;11.10;99.90
23271;DHT22;11804;51.118;17.058;2023-04-01T08:23:18;11.10;99.90
23271;DHT22;11804;51.118;17.058;2023-04-01T08:25:54;11.10;99.90
23271;DHT22;11804;51.118;17.058;2023-04-01T08:28:39;10.90;99.90
23271;DHT22;11804;51.118;17.058;2023-04-01T08:31:53;10.90;99.90
23271;DHT22;11804;51.118;17.058;2023-04-01T08:33:37;11.00;99.90
23271;DHT22;11804;51.118;17.058;2023-04-01T08:38:54;11.20;99.90
23271;DHT22;11804;51.118;17.058;2023-04-01T08:55:44;11.40;99.90
23271;DHT22;11804;51.118;17.058;2023-04-01T09:04:13;11.50;99.90
23271;DHT22;11804;51.118;17.058;2023-04-01T09:15:37;11.80;99.90
23271;DHT22;11804;51.118;17.058;2023-04-01T09:18:38;11.80;99.90
23271;DHT22;11804;51.118;17.058;2023-04-01T09:21:24;11.90;99.90
23271;DHT22;11804;51.118;17.058;2023-04-01T09:24:12;12.00;99.90
23271;DHT22;11804;51.118;17.058;2023-04-01T09:27:29;12.20;99.90
23271;DHT22;11804;51.118;17.058;2023-04-01T09:32:03;12.40;99.90
23271;DHT22;11804;51.118;17.058;2023-04-01T09:34:51;12.50;99.90
23271;DHT22;11804;51.118;17.058;2023-04-01T10:10:54;11.90;99.90
23271;DHT22;11804;51.118;17.058;2023-04-01T10:13:56;12.00;99.90
23271;DHT22;11804;51.118;17.058;2023-04-01T10:19:13;12.00;99.90
23271;DHT22;11804;51.118;17.058;2023-04-01T10:27:26;12.20;99.90
23271;DHT22;11804;51.118;17.058;2023-04-01T10:36:25;12.50;99.90
23271;DHT22;11804;51.118;17.058;2023-04-01T10:39:01;12.40;99.90
23271;DHT22;11804;51.118;17.058;2023-04-01T10:41:44;12.00;99.90
23271;DHT22;11804;51.118;17.058;2023-04-01T10:44:40;11.80;99.90
23271;DHT22;11804;51.118;17.058;2023-04-01T10:50:01;11.40;99.90
23271;DHT22;11804;51.118;17.058;2023-04-01T10:55:19;11.20;99.90
23271;DHT22;11804;51.118;17.058;2023-04-01T10:58:36;11.20;99.90
23271;DHT22;11804;51.118;17.058;2023-04-01T11:01:07;11.40;99.90
23271;DHT22;11804;51.118;17.058;2023-04-01T11:09:07;11.90;99.90
23271;DHT22;11804;51.118;17.058;2023-04-01T11:14:38;12.20;99.90
23271;DHT22;11804;51.118;17.058;2023-04-01T11:37:16;13.00;99.90
23271;DHT22;11804;51.118;17.058;2023-04-01T11:57:03;11.60;99.90
23271;DHT22;11804;51.118;17.058;2023-04-01T12:02:44;11.60;99.90
23271;DHT22;11804;51.118;17.058;2023-04-01T12:08:08;11.90;99.90
23271;DHT22;11804;51.118;17.058;2023-04-01T12:13:27;11.90;99.90
23271;DHT22;11804;51.118;17.058;2023-04-01T12:21:38;12.20;99.90
23271;DHT22;11804;51.118;17.058;2023-04-01T12:37:42;12.50;99.90
23271;DHT22;11804;51.118;17.058;2023-04-01T12:40:37;12.50;99.90
23271;DHT22;11804;51.118;17.058;2023-04-01T12:43:28;12.50;99.90
23271;DHT22;11804;51.118;17.058;2023-04-01T12:46:01;12.60;99.90
23271;DHT22;11804;51.118;17.058;2023-04-01T13:02:52;13.20;99.90
23271;DHT22;11804;51.118;17.058;2023-04-01T13:08:04;13.30;99.90
23271;DHT22;11804;51.118;17.058;2023-04-01T13:16:29;13.30;99.90
23271;DHT22;11804;51.118;17.058;2023-04-01T13:21:42;13.40;99.90
23271;DHT22;11804;51.118;17.058;2023-04-01T13:24:23;13.40;99.90
23271;DHT22;11804;51.118;17.058;2023-04-01T13:32:29;13.20;99.90
23271;DHT22;11804;51.118;17.058;2023-04-01T13:34:59;13.10;99.90
23271;DHT22;11804;51.118;17.058;2023-04-01T13:37:39;13.00;99.90
23271;DHT22;11804;51.118;17.058;2023-04-01T13:54:11;12.60;99.90
23271;DHT22;11804;51.118;17.058;2023-04-01T14:05:29;12.50;99.90
23271;DHT22;11804;51.118;17.058;2023-04-01T14:21:30;12.40;99.90
23271;DHT22;11804;51.118;17.058;2023-04-01T14:32:50;12.60;99.90
23271;DHT22;11804;51.118;17.058;2023-04-01T14:35:41;12.60;99.90
23271;DHT22;11804;51.118;17.058;2023-04-01T14:38:24;12.50;99.90
23271;DHT22;11804;51.118;17.058;2023-04-01T14:44:05;12.30;99.90
23271;DHT22;11804;51.118;17.058;2023-04-01T14:46:55;12.20;99.90
23271;DHT22;11804;51.118;17.058;2023-04-01T14:49:35;12.20;99.90
23271;DHT22;11804;51.118;17.058;2023-04-01T14:54:51;12.10;99.90
23271;DHT22;11804;51.118;17.058;2023-04-01T14:57:30;12.10;99.90
23271;DHT22;11804;51.118;17.058;2023-04-01T15:02:58;12.10;99.90
23271;DHT22;11804;51.118;17.058;2023-04-01T15:08:17;12.00;99.90
23271;DHT22;11804;51.118;17.058;2023-04-01T15:14:00;12.00;99.90
23271;DHT22;11804;51.118;17.058;2023-04-01T15:16:39;12.00;99.90
23271;DHT22;11804;51.118;17.058;2023-04-01T15:19:15;11.90;99.90
23271;DHT22;11804;51.118;17.058;2023-04-01T15:24:39;11.70;99.90
23271;DHT22;11804;51.118;17.058;2023-04-01T15:27:38;11.60;99.90
23271;DHT22;11804;51.118;17.058;2023-04-01T15:35:53;11.60;99.90
23271;DHT22;11804;51.118;17.058;2023-04-01T15:38:40;11.60;99.90
23271;DHT22;11804;51.118;17.058;2023-04-01T15:43:49;11.70;99.90
23271;DHT22;11804;51.118;17.058;2023-04-01T15:49:43;11.80;99.90
23271;DHT22;11804;51.118;17.058;2023-04-01T15:52:22;11.70;99.90
23271;DHT22;11804;51.118;17.058;2023-04-01T16:00:31;11.60;99.90
23271;DHT22;11804;51.118;17.058;2023-04-01T16:03:22;11.60;99.90
23271;DHT22;11804;51.118;17.058;2023-04-01T16:22:40;11.40;99.90
23271;DHT22;11804;51.118;17.058;2023-04-01T16:30:44;11.40;99.90
23271;DHT22;11804;51.118;17.058;2023-04-01T16:33:24;11.30;99.90
23271;DHT22;11804;51.118;17.058;2023-04-01T16:36:29;11.20;99.90
23271;DHT22;11804;51.118;17.058;2023-04-01T16:42:23;11.20;99.90
23271;DHT22;11804;51.118;17.058;2023-04-01T16:45:24;11.20;99.90
23271;DHT22;11804;51.118;17.058;2023-04-01T16:47:45;11.20;99.90
23271;DHT22;11804;51.118;17.058;2023-04-01T16:50:23;11.10;99.90
23271;DHT22;11804;51.118;17.058;2023-04-01T16:53:00;11.20;99.90
23271;DHT22;11804;51.118;17.058;2023-04-01T16:55:49;11.10;99.90
23271;DHT22;11804;51.118;17.058;2023-04-01T17:01:21;11.00;99.90
23271;DHT22;11804;51.118;17.058;2023-04-01T17:03:57;10.90;99.90
23271;DHT22;11804;51.118;17.058;2023-04-01T17:09:28;11.00;99.90
23271;DHT22;11804;51.118;17.058;2023-04-01T17:17:49;10.90;99.90
23271;DHT22;11804;51.118;17.058;2023-04-01T17:23:23;10.80;99.90
23271;DHT22;11804;51.118;17.058;2023-04-01T17:26:08;10.80;99.90
23271;DHT22;11804;51.118;17.058;2023-04-01T17:39:38;10.80;99.90
23271;DHT22;11804;51.118;17.058;2023-04-01T17:45:10;10.70;99.90
23271;DHT22;11804;51.118;17.058;2023-04-01T17:47:34;10.80;99.90
23271;DHT22;11804;51.118;17.058;2023-04-01T17:52:46;10.70;99.90
23271;DHT22;11804;51.118;17.058;2023-04-01T17:55:50;10.60;99.90
23271;DHT22;11804;51.118;17.058;2023-04-01T17:58:44;10.50;99.90
23271;DHT22;11804;51.118;17.058;2023-04-01T18:01:17;10.50;99.90
23271;DHT22;11804;51.118;17.058;2023-04-01T18:04:10;10.40;99.90
23271;DHT22;11804;51.118;17.058;2023-04-01T18:06:46;10.40;99.90
23271;DHT22;11804;51.118;17.058;2023-04-01T18:09:46;10.40;99.90
23271;DHT22;11804;51.118;17.058;2023-04-01T18:12:28;10.30;99.90
23271;DHT22;11804;51.118;17.058;2023-04-01T18:15:27;10.30;99.90
23271;DHT22;11804;51.118;17.058;2023-04-01T18:21:16;10.00;99.90
23271;DHT22;11804;51.118;17.058;2023-04-01T18:23:45;10.00;99.90
23271;DHT22;11804;51.118;17.058;2023-04-01T18:26:28;10.00;99.90
23271;DHT22;11804;51.118;17.058;2023-04-01T18:29:04;9.80;99.90
23271;DHT22;11804;51.118;17.058;2023-04-01T18:31:37;9.80;99.90
23271;DHT22;11804;51.118;17.058;2023-04-01T18:34:31;9.90;99.90
23271;DHT22;11804;51.118;17.058;2023-04-01T18:36:50;9.80;99.90
23271;DHT22;11804;51.118;17.058;2023-04-01T18:39:23;9.80;99.90
23271;DHT22;11804;51.118;17.058;2023-04-01T18:42:03;9.80;99.90
23271;DHT22;11804;51.118;17.058;2023-04-01T18:44:46;9.80;99.90
23271;DHT22;11804;51.118;17.058;2023-04-01T18:47:27;9.80;99.90
23271;DHT22;11804;51.118;17.058;2023-04-01T18:49:58;9.90;99.90
23271;DHT22;11804;51.118;17.058;2023-04-01T18:52:33;9.90;99.90
23271;DHT22;11804;51.118;17.058;2023-04-01T18:57:46;9.80;99.90
23271;DHT22;11804;51.118;17.058;2023-04-01T19:05:38;9.70;99.90
23271;DHT22;11804;51.118;17.058;2023-04-01T19:08:25;9.60;99.90
23271;DHT22;11804;51.118;17.058;2023-04-01T19:11:10;9.60;99.90
23271;DHT22;11804;51.118;17.058;2023-04-01T19:13:56;9.70;99.90
23271;DHT22;11804;51.118;17.058;2023-04-01T19:16:48;9.80;99.90
23271;DHT22;11804;51.118;17.058;2023-04-01T19:25:22;9.70;99.90
23271;DHT22;11804;51.118;17.058;2023-04-01T19:27:51;9.70;99.90
23271;DHT22;11804;51.118;17.058;2023-04-01T19:36:27;9.30;99.90
23271;DHT22;11804;51.118;17.058;2023-04-01T19:39:09;9.40;99.90
23271;DHT22;11804;51.118;17.058;2023-04-01T19:41:41;9.40;99.90
23271;DHT22;11804;51.118;17.058;2023-04-01T19:49:56;9.40;99.90
23271;DHT22;11804;51.118;17.058;2023-04-01T19:52:39;9.40;99.90
23271;DHT22;11804;51.118;17.058;2023-04-01T19:55:21;9.40;99.90
23271;DHT22;11804;51.118;17.058;2023-04-01T19:58:04;9.50;99.90
23271;DHT22;11804;51.118;17.058;2023-04-01T20:00:46;9.50;99.90
23271;DHT22;11804;51.118;17.058;2023-04-01T20:03:25;9.50;99.90
23271;DHT22;11804;51.118;17.058;2023-04-01T20:08:58;9.50;99.90
23271;DHT22;11804;51.118;17.058;2023-04-01T20:11:53;9.50;99.90
23271;DHT22;11804;51.118;17.058;2023-04-01T20:28:11;9.50;99.90
23271;DHT22;11804;51.118;17.058;2023-04-01T20:36:50;9.50;99.90
23271;DHT22;11804;51.118;17.058;2023-04-01T20:50:52;9.40;99.90
23271;DHT22;11804;51.118;17.058;2023-04-01T20:53:28;9.50;99.90
23271;DHT22;11804;51.118;17.058;2023-04-01T20:56:23;9.40;99.90
23271;DHT22;11804;51.118;17.058;2023-04-01T21:01:47;9.30;99.90
23271;DHT22;11804;51.118;17.058;2023-04-01T21:04:22;9.30;99.90
23271;DHT22;11804;51.118;17.058;2023-04-01T21:06:53;9.20;99.90
23271;DHT22;11804;51.118;17.058;2023-04-01T21:31:14;9.10;99.90
23271;DHT22;11804;51.118;17.058;2023-04-01T21:33:45;9.00;99.90
23271;DHT22;11804;51.118;17.058;2023-04-01T21:48:22;8.70;99.90
23271;DHT22;11804;51.118;17.058;2023-04-01T21:57:03;8.60;99.90
23271;DHT22;11804;51.118;17.058;2023-04-01T22:08:35;8.50;99.90
23271;DHT22;11804;51.118;17.058;2023-04-01T22:11:14;8.50;99.90
23271;DHT22;11804;51.118;17.058;2023-04-01T22:16:32;8.50;99.90
23271;DHT22;11804;51.118;17.058;2023-04-01T22:21:50;8.40;99.90
23271;DHT22;11804;51.118;17.058;2023-04-01T22:24:36;8.50;99.90
23271;DHT22;11804;51.118;17.058;2023-04-01T22:29:38;8.50;99.90
23271;DHT22;11804;51.118;17.058;2023-04-01T22:32:14;8.40;99.90
23271;DHT22;11804;51.118;17.058;2023-04-01T22:35:12;8.40;99.90
23271;DHT22;11804;51.118;17.058;2023-04-01T22:40:27;8.50;99.90
23271;DHT22;11804;51.118;17.058;2023-04-01T22:43:13;8.40;99.90
23271;DHT22;11804;51.118;17.058;2023-04-01T22:45:52;8.40;99.90
23271;DHT22;11804;51.118;17.058;2023-04-01T22:48:36;8.40;99.90
23271;DHT22;11804;51.118;17.058;2023-04-01T22:57:04;8.40;99.90
23271;DHT22;11804;51.118;17.058;2023-04-01T22:59:44;8.30;99.90
23271;DHT22;11804;51.118;17.058;2023-04-01T23:02:19;8.30;99.90
23271;DHT22;11804;51.118;17.058;2023-04-01T23:04:49;8.30;99.90
23271;DHT22;11804;51.118;17.058;2023-04-01T23:07:38;8.30;99.90
23271;DHT22;11804;51.118;17.058;2023-04-01T23:10:11;8.30;99.90
23271;DHT22;11804;51.118;17.058;2023-04-01T23:12:36;8.20;99.90
23271;DHT22;11804;51.118;17.058;2023-04-01T23:15:04;8.30;99.90
23271;DHT22;11804;51.118;17.058;2023-04-01T23:20:47;8.20;99.90
23271;DHT22;11804;51.118;17.058;2023-04-01T23:23:24;8.20;99.90
23271;DHT22;11804;51.118;17.058;2023-04-01T23:34:01;8.00;99.90
23271;DHT22;11804;51.118;17.058;2023-04-01T23:36:26;8.00;99.90
23271;DHT22;11804;51.118;17.058;2023-04-01T23:38:55;7.90;99.90
23271;DHT22;11804;51.118;17.058;2023-04-01T23:41:30;7.80;99.90
23271;DHT22;11804;51.118;17.058;2023-04-01T23:44:10;7.70;99.90
23271;DHT22;11804;51.118;17.058;2023-04-01T23:46:40;7.70;99.90
23271;DHT22;11804;51.118;17.058;2023-04-01T23:49:45;7.70;99.90
23271;DHT22;11804;51.118;17.058;2023-04-01T23:51:52;7.60;99.90
23271;DHT22;11804;51.118;17.058;2023-04-01T23:54:38;7.50;99.90
23271;DHT22;11804;51.118;17.058;2023-04-01T23:57:09;7.40;99.90
23271;DHT22;11804;51.118;17.058;2023-04-01T23:59:36;7.40;99.90
